sensor_id;sensor_type;location;lat;lon;timestamp;P1;durP1;ratioP1;P2;durP2;ratioP2
45043;SDS011;30784;48.490;9.688;2024-02-23T00:01:39;1.45;;;0.40;;
45043;SDS011;30784;48.490;9.688;2024-02-23T00:04:04;1.27;;;0.20;;
45043;SDS011;30784;48.490;9.688;2024-02-23T00:06:32;0.47;;;0.20;;
45043;SDS011;30784;48.490;9.688;2024-02-23T00:08:57;1.10;;;0.30;;
45043;SDS011;30784;48.490;9.688;2024-02-23T00:11:23;0.98;;;0.38;;
45043;SDS011;30784;48.490;9.688;2024-02-23T00:13:49;1.92;;;0.20;;
45043;SDS011;30784;48.490;9.688;2024-02-23T00:16:14;1.30;;;0.10;;
45043;SDS011;30784;48.490;9.688;2024-02-23T00:18:40;7.57;;;2.83;;
45043;SDS011;30784;48.490;9.688;2024-02-23T00:21:06;5.75;;;1.77;;
45043;SDS011;30784;48.490;9.688;2024-02-23T00:23:31;2.35;;;0.60;;
45043;SDS011;30784;48.490;9.688;2024-02-23T00:25:57;0.38;;;0.17;;
45043;SDS011;30784;48.490;9.688;2024-02-23T00:28:22;0.80;;;0.20;;
45043;SDS011;30784;48.490;9.688;2024-02-23T00:30:48;0.22;;;0.00;;
45043;SDS011;30784;48.490;9.688;2024-02-23T00:33:14;0.52;;;0.10;;
45043;SDS011;30784;48.490;9.688;2024-02-23T00:35:39;0.20;;;0.10;;
45043;SDS011;30784;48.490;9.688;2024-02-23T00:38:05;0.55;;;0.10;;
45043;SDS011;30784;48.490;9.688;2024-02-23T00:40:32;0.15;;;0.00;;
45043;SDS011;30784;48.490;9.688;2024-02-23T00:42:58;0.13;;;0.00;;
45043;SDS011;30784;48.490;9.688;2024-02-23T00:45:25;0.05;;;0.00;;
45043;SDS011;30784;48.490;9.688;2024-02-23T00:47:50;0.75;;;0.10;;
45043;SDS011;30784;48.490;9.688;2024-02-23T00:50:16;0.40;;;0.00;;
45043;SDS011;30784;48.490;9.688;2024-02-23T00:52:41;0.30;;;0.00;;
45043;SDS011;30784;48.490;9.688;2024-02-23T00:55:07;1.05;;;0.10;;
45043;SDS011;30784;48.490;9.688;2024-02-23T00:57:34;3.92;;;1.10;;
45043;SDS011;30784;48.490;9.688;2024-02-23T01:00:00;2.13;;;0.50;;
45043;SDS011;30784;48.490;9.688;2024-02-23T01:02:27;0.55;;;0.20;;
45043;SDS011;30784;48.490;9.688;2024-02-23T01:04:54;0.30;;;0.10;;
45043;SDS011;30784;48.490;9.688;2024-02-23T01:07:21;0.50;;;0.00;;
45043;SDS011;30784;48.490;9.688;2024-02-23T01:09:47;0.28;;;0.10;;
45043;SDS011;30784;48.490;9.688;2024-02-23T01:12:13;0.00;;;0.00;;
45043;SDS011;30784;48.490;9.688;2024-02-23T01:14:39;0.25;;;0.10;;
45043;SDS011;30784;48.490;9.688;2024-02-23T01:17:04;0.47;;;0.00;;
45043;SDS011;30784;48.490;9.688;2024-02-23T01:19:30;1.35;;;0.10;;
45043;SDS011;30784;48.490;9.688;2024-02-23T01:21:56;0.45;;;0.15;;
45043;SDS011;30784;48.490;9.688;2024-02-23T01:24:25;3.85;;;0.28;;
45043;SDS011;30784;48.490;9.688;2024-02-23T01:26:52;1.15;;;0.20;;
45043;SDS011;30784;48.490;9.688;2024-02-23T01:29:19;1.50;;;0.13;;
45043;SDS011;30784;48.490;9.688;2024-02-23T01:31:45;1.77;;;0.20;;
45043;SDS011;30784;48.490;9.688;2024-02-23T01:34:10;2.03;;;0.45;;
45043;SDS011;30784;48.490;9.688;2024-02-23T01:36:36;1.23;;;0.17;;
45043;SDS011;30784;48.490;9.688;2024-02-23T01:39:02;2.88;;;0.30;;
45043;SDS011;30784;48.490;9.688;2024-02-23T01:41:28;0.85;;;0.20;;
45043;SDS011;30784;48.490;9.688;2024-02-23T01:43:54;2.67;;;0.20;;
45043;SDS011;30784;48.490;9.688;2024-02-23T01:46:20;2.17;;;0.25;;
45043;SDS011;30784;48.490;9.688;2024-02-23T01:48:45;1.17;;;0.10;;
45043;SDS011;30784;48.490;9.688;2024-02-23T01:51:11;2.50;;;0.22;;
45043;SDS011;30784;48.490;9.688;2024-02-23T01:53:37;1.25;;;0.15;;
45043;SDS011;30784;48.490;9.688;2024-02-23T01:56:03;1.23;;;0.20;;
45043;SDS011;30784;48.490;9.688;2024-02-23T01:58:29;0.93;;;0.10;;
45043;SDS011;30784;48.490;9.688;2024-02-23T02:00:57;3.20;;;0.20;;
45043;SDS011;30784;48.490;9.688;2024-02-23T02:03:23;1.20;;;0.30;;
45043;SDS011;30784;48.490;9.688;2024-02-23T02:05:48;1.85;;;0.20;;
45043;SDS011;30784;48.490;9.688;2024-02-23T02:08:15;2.90;;;0.17;;
45043;SDS011;30784;48.490;9.688;2024-02-23T02:10:42;0.93;;;0.20;;
45043;SDS011;30784;48.490;9.688;2024-02-23T02:13:08;1.30;;;0.20;;
45043;SDS011;30784;48.490;9.688;2024-02-23T02:15:33;2.10;;;0.20;;
45043;SDS011;30784;48.490;9.688;2024-02-23T02:17:59;1.20;;;0.30;;
45043;SDS011;30784;48.490;9.688;2024-02-23T02:20:25;0.75;;;0.10;;
45043;SDS011;30784;48.490;9.688;2024-02-23T02:22:52;1.15;;;0.20;;
45043;SDS011;30784;48.490;9.688;2024-02-23T02:25:18;0.43;;;0.10;;
45043;SDS011;30784;48.490;9.688;2024-02-23T02:27:44;0.68;;;0.10;;
45043;SDS011;30784;48.490;9.688;2024-02-23T02:30:10;0.50;;;0.13;;
45043;SDS011;30784;48.490;9.688;2024-02-23T02:32:37;1.17;;;0.25;;
45043;SDS011;30784;48.490;9.688;2024-02-23T02:35:02;1.48;;;0.10;;
45043;SDS011;30784;48.490;9.688;2024-02-23T02:37:28;1.92;;;0.10;;
45043;SDS011;30784;48.490;9.688;2024-02-23T02:39:54;0.40;;;0.10;;
45043;SDS011;30784;48.490;9.688;2024-02-23T02:42:19;1.98;;;0.20;;
45043;SDS011;30784;48.490;9.688;2024-02-23T02:44:45;1.23;;;0.10;;
45043;SDS011;30784;48.490;9.688;2024-02-23T02:47:10;1.33;;;0.20;;
45043;SDS011;30784;48.490;9.688;2024-02-23T02:49:36;1.45;;;0.10;;
45043;SDS011;30784;48.490;9.688;2024-02-23T02:52:02;1.45;;;0.10;;
45043;SDS011;30784;48.490;9.688;2024-02-23T02:54:27;2.42;;;0.30;;
45043;SDS011;30784;48.490;9.688;2024-02-23T02:56:53;1.38;;;0.20;;
45043;SDS011;30784;48.490;9.688;2024-02-23T02:59:19;0.55;;;0.10;;
45043;SDS011;30784;48.490;9.688;2024-02-23T03:01:45;1.05;;;0.10;;
45043;SDS011;30784;48.490;9.688;2024-02-23T03:04:12;1.33;;;0.10;;
45043;SDS011;30784;48.490;9.688;2024-02-23T03:06:37;1.45;;;0.15;;
45043;SDS011;30784;48.490;9.688;2024-02-23T03:09:03;1.85;;;0.15;;
45043;SDS011;30784;48.490;9.688;2024-02-23T03:11:28;1.05;;;0.10;;
45043;SDS011;30784;48.490;9.688;2024-02-23T03:13:54;0.80;;;0.13;;
45043;SDS011;30784;48.490;9.688;2024-02-23T03:16:20;1.30;;;0.15;;
45043;SDS011;30784;48.490;9.688;2024-02-23T03:18:48;0.95;;;0.10;;
45043;SDS011;30784;48.490;9.688;2024-02-23T03:21:14;0.90;;;0.10;;
45043;SDS011;30784;48.490;9.688;2024-02-23T03:23:40;1.42;;;0.30;;
45043;SDS011;30784;48.490;9.688;2024-02-23T03:26:06;1.40;;;0.13;;
45043;SDS011;30784;48.490;9.688;2024-02-23T03:28:32;2.75;;;0.30;;
45043;SDS011;30784;48.490;9.688;2024-02-23T03:30:57;1.30;;;0.00;;
45043;SDS011;30784;48.490;9.688;2024-02-23T03:33:24;0.35;;;0.10;;
45043;SDS011;30784;48.490;9.688;2024-02-23T03:35:50;0.75;;;0.10;;
45043;SDS011;30784;48.490;9.688;2024-02-23T03:38:15;1.73;;;0.30;;
45043;SDS011;30784;48.490;9.688;2024-02-23T03:40:41;2.17;;;0.30;;
45043;SDS011;30784;48.490;9.688;2024-02-23T03:43:07;2.85;;;0.20;;
45043;SDS011;30784;48.490;9.688;2024-02-23T03:45:33;2.03;;;0.20;;
45043;SDS011;30784;48.490;9.688;2024-02-23T03:47:59;0.85;;;0.17;;
45043;SDS011;30784;48.490;9.688;2024-02-23T03:50:25;1.45;;;0.20;;
45043;SDS011;30784;48.490;9.688;2024-02-23T03:52:50;1.38;;;0.30;;
45043;SDS011;30784;48.490;9.688;2024-02-23T03:55:16;1.30;;;0.17;;
45043;SDS011;30784;48.490;9.688;2024-02-23T03:57:41;1.13;;;0.15;;
45043;SDS011;30784;48.490;9.688;2024-02-23T04:00:07;1.40;;;0.20;;
45043;SDS011;30784;48.490;9.688;2024-02-23T04:02:34;1.70;;;0.13;;
45043;SDS011;30784;48.490;9.688;2024-02-23T04:04:59;1.45;;;0.10;;
45043;SDS011;30784;48.490;9.688;2024-02-23T04:07:25;0.68;;;0.20;;
45043;SDS011;30784;48.490;9.688;2024-02-23T04:09:50;1.27;;;0.17;;
45043;SDS011;30784;48.490;9.688;2024-02-23T04:12:19;4.05;;;0.55;;
45043;SDS011;30784;48.490;9.688;2024-02-23T04:14:48;2.05;;;0.32;;
45043;SDS011;30784;48.490;9.688;2024-02-23T04:17:14;1.90;;;0.20;;
45043;SDS011;30784;48.490;9.688;2024-02-23T04:19:41;0.88;;;0.28;;
45043;SDS011;30784;48.490;9.688;2024-02-23T04:22:07;3.22;;;0.40;;
45043;SDS011;30784;48.490;9.688;2024-02-23T04:24:35;1.02;;;0.10;;
45043;SDS011;30784;48.490;9.688;2024-02-23T04:27:01;1.60;;;0.28;;
45043;SDS011;30784;48.490;9.688;2024-02-23T04:29:27;4.07;;;0.38;;
45043;SDS011;30784;48.490;9.688;2024-02-23T04:31:52;1.30;;;0.17;;
45043;SDS011;30784;48.490;9.688;2024-02-23T04:34:18;2.17;;;0.20;;
45043;SDS011;30784;48.490;9.688;2024-02-23T04:36:43;2.38;;;0.38;;
45043;SDS011;30784;48.490;9.688;2024-02-23T04:39:09;0.93;;;0.20;;
45043;SDS011;30784;48.490;9.688;2024-02-23T04:41:34;1.33;;;0.30;;
45043;SDS011;30784;48.490;9.688;2024-02-23T04:44:00;2.80;;;0.20;;
45043;SDS011;30784;48.490;9.688;2024-02-23T04:46:26;2.55;;;0.50;;
45043;SDS011;30784;48.490;9.688;2024-02-23T04:48:52;2.80;;;0.60;;
45043;SDS011;30784;48.490;9.688;2024-02-23T04:51:17;7.45;;;0.90;;
45043;SDS011;30784;48.490;9.688;2024-02-23T04:53:44;3.38;;;0.50;;
45043;SDS011;30784;48.490;9.688;2024-02-23T04:56:09;2.03;;;0.30;;
45043;SDS011;30784;48.490;9.688;2024-02-23T04:58:35;1.95;;;0.63;;
45043;SDS011;30784;48.490;9.688;2024-02-23T05:01:02;2.00;;;0.30;;
45043;SDS011;30784;48.490;9.688;2024-02-23T05:03:28;5.93;;;0.90;;
45043;SDS011;30784;48.490;9.688;2024-02-23T05:05:54;3.15;;;0.60;;
45043;SDS011;30784;48.490;9.688;2024-02-23T05:08:20;2.75;;;0.70;;
45043;SDS011;30784;48.490;9.688;2024-02-23T05:10:46;2.30;;;0.70;;
45043;SDS011;30784;48.490;9.688;2024-02-23T05:13:12;4.30;;;1.15;;
45043;SDS011;30784;48.490;9.688;2024-02-23T05:15:38;4.82;;;1.10;;
45043;SDS011;30784;48.490;9.688;2024-02-23T05:18:03;6.32;;;1.40;;
45043;SDS011;30784;48.490;9.688;2024-02-23T05:20:29;9.20;;;2.20;;
45043;SDS011;30784;48.490;9.688;2024-02-23T05:22:55;7.78;;;1.95;;
45043;SDS011;30784;48.490;9.688;2024-02-23T05:25:20;7.20;;;1.20;;
45043;SDS011;30784;48.490;9.688;2024-02-23T05:27:46;4.65;;;0.98;;
45043;SDS011;30784;48.490;9.688;2024-02-23T05:30:12;4.55;;;1.13;;
45043;SDS011;30784;48.490;9.688;2024-02-23T05:32:37;3.13;;;0.73;;
45043;SDS011;30784;48.490;9.688;2024-02-23T05:35:03;4.20;;;0.73;;
45043;SDS011;30784;48.490;9.688;2024-02-23T05:37:29;5.28;;;1.30;;
45043;SDS011;30784;48.490;9.688;2024-02-23T05:39:55;5.55;;;1.52;;
45043;SDS011;30784;48.490;9.688;2024-02-23T05:42:20;2.15;;;0.50;;
45043;SDS011;30784;48.490;9.688;2024-02-23T05:44:46;2.80;;;0.50;;
45043;SDS011;30784;48.490;9.688;2024-02-23T05:47:13;3.40;;;1.08;;
45043;SDS011;30784;48.490;9.688;2024-02-23T05:49:39;5.13;;;1.50;;
45043;SDS011;30784;48.490;9.688;2024-02-23T05:52:05;5.43;;;1.20;;
45043;SDS011;30784;48.490;9.688;2024-02-23T05:54:30;3.78;;;0.88;;
45043;SDS011;30784;48.490;9.688;2024-02-23T05:56:56;4.18;;;0.80;;
45043;SDS011;30784;48.490;9.688;2024-02-23T05:59:22;4.25;;;0.80;;
45043;SDS011;30784;48.490;9.688;2024-02-23T06:01:47;4.63;;;0.90;;
45043;SDS011;30784;48.490;9.688;2024-02-23T06:04:13;6.00;;;1.40;;
45043;SDS011;30784;48.490;9.688;2024-02-23T06:06:41;2.75;;;0.90;;
45043;SDS011;30784;48.490;9.688;2024-02-23T06:09:08;3.58;;;0.73;;
45043;SDS011;30784;48.490;9.688;2024-02-23T06:11:33;2.97;;;0.73;;
45043;SDS011;30784;48.490;9.688;2024-02-23T06:13:59;4.55;;;1.00;;
45043;SDS011;30784;48.490;9.688;2024-02-23T06:16:24;7.30;;;2.38;;
45043;SDS011;30784;48.490;9.688;2024-02-23T06:18:50;6.50;;;2.58;;
45043;SDS011;30784;48.490;9.688;2024-02-23T06:21:16;5.35;;;1.35;;
45043;SDS011;30784;48.490;9.688;2024-02-23T06:23:45;4.00;;;1.10;;
45043;SDS011;30784;48.490;9.688;2024-02-23T06:26:11;3.78;;;1.17;;
45043;SDS011;30784;48.490;9.688;2024-02-23T06:28:37;5.20;;;1.70;;
45043;SDS011;30784;48.490;9.688;2024-02-23T06:31:07;3.50;;;1.20;;
45043;SDS011;30784;48.490;9.688;2024-02-23T06:33:33;4.70;;;1.27;;
45043;SDS011;30784;48.490;9.688;2024-02-23T06:35:59;5.22;;;1.50;;
45043;SDS011;30784;48.490;9.688;2024-02-23T06:38:24;4.47;;;1.30;;
45043;SDS011;30784;48.490;9.688;2024-02-23T06:40:50;7.85;;;2.13;;
45043;SDS011;30784;48.490;9.688;2024-02-23T06:43:16;5.78;;;1.90;;
45043;SDS011;30784;48.490;9.688;2024-02-23T06:45:42;6.38;;;1.75;;
45043;SDS011;30784;48.490;9.688;2024-02-23T06:48:08;3.90;;;0.90;;
45043;SDS011;30784;48.490;9.688;2024-02-23T06:50:34;3.78;;;0.90;;
45043;SDS011;30784;48.490;9.688;2024-02-23T06:53:00;2.92;;;0.70;;
45043;SDS011;30784;48.490;9.688;2024-02-23T06:55:27;2.67;;;0.57;;
45043;SDS011;30784;48.490;9.688;2024-02-23T06:57:53;2.85;;;0.50;;
45043;SDS011;30784;48.490;9.688;2024-02-23T07:00:20;3.15;;;0.60;;
45043;SDS011;30784;48.490;9.688;2024-02-23T07:02:46;3.25;;;0.70;;
45043;SDS011;30784;48.490;9.688;2024-02-23T07:05:12;4.32;;;0.90;;
45043;SDS011;30784;48.490;9.688;2024-02-23T07:07:39;3.38;;;0.90;;
45043;SDS011;30784;48.490;9.688;2024-02-23T07:10:05;3.38;;;0.80;;
45043;SDS011;30784;48.490;9.688;2024-02-23T07:12:32;2.67;;;0.80;;
45043;SDS011;30784;48.490;9.688;2024-02-23T07:14:57;2.88;;;0.63;;
45043;SDS011;30784;48.490;9.688;2024-02-23T07:17:23;1.75;;;0.50;;
45043;SDS011;30784;48.490;9.688;2024-02-23T07:19:49;3.30;;;0.60;;
45043;SDS011;30784;48.490;9.688;2024-02-23T07:22:15;2.05;;;0.50;;
45043;SDS011;30784;48.490;9.688;2024-02-23T07:24:43;3.63;;;0.55;;
45043;SDS011;30784;48.490;9.688;2024-02-23T07:27:08;3.85;;;0.55;;
45043;SDS011;30784;48.490;9.688;2024-02-23T07:29:34;5.40;;;1.50;;
45043;SDS011;30784;48.490;9.688;2024-02-23T07:32:00;5.68;;;1.20;;
45043;SDS011;30784;48.490;9.688;2024-02-23T07:34:26;6.40;;;1.90;;
45043;SDS011;30784;48.490;9.688;2024-02-23T07:36:52;6.28;;;1.70;;
45043;SDS011;30784;48.490;9.688;2024-02-23T07:39:18;3.45;;;1.00;;
45043;SDS011;30784;48.490;9.688;2024-02-23T07:41:44;5.68;;;1.60;;
45043;SDS011;30784;48.490;9.688;2024-02-23T07:44:09;8.20;;;2.30;;
45043;SDS011;30784;48.490;9.688;2024-02-23T07:46:35;6.65;;;1.98;;
45043;SDS011;30784;48.490;9.688;2024-02-23T07:49:01;11.85;;;5.15;;
45043;SDS011;30784;48.490;9.688;2024-02-23T07:51:27;6.78;;;2.00;;
45043;SDS011;30784;48.490;9.688;2024-02-23T07:53:53;6.18;;;1.85;;
45043;SDS011;30784;48.490;9.688;2024-02-23T07:56:19;3.83;;;1.00;;
45043;SDS011;30784;48.490;9.688;2024-02-23T07:58:44;3.13;;;0.90;;
45043;SDS011;30784;48.490;9.688;2024-02-23T08:01:10;5.72;;;1.23;;
45043;SDS011;30784;48.490;9.688;2024-02-23T08:03:35;8.80;;;3.10;;
45043;SDS011;30784;48.490;9.688;2024-02-23T08:06:01;5.70;;;1.65;;
45043;SDS011;30784;48.490;9.688;2024-02-23T08:08:26;4.43;;;1.08;;
45043;SDS011;30784;48.490;9.688;2024-02-23T08:10:53;5.85;;;1.20;;
45043;SDS011;30784;48.490;9.688;2024-02-23T08:13:18;4.65;;;1.25;;
45043;SDS011;30784;48.490;9.688;2024-02-23T08:15:44;5.38;;;1.10;;
45043;SDS011;30784;48.490;9.688;2024-02-23T08:18:10;5.05;;;1.40;;
45043;SDS011;30784;48.490;9.688;2024-02-23T08:20:35;6.95;;;2.00;;
45043;SDS011;30784;48.490;9.688;2024-02-23T08:23:01;9.35;;;2.47;;
45043;SDS011;30784;48.490;9.688;2024-02-23T08:25:27;5.00;;;1.30;;
45043;SDS011;30784;48.490;9.688;2024-02-23T08:27:56;3.15;;;1.02;;
45043;SDS011;30784;48.490;9.688;2024-02-23T08:30:22;6.28;;;1.98;;
45043;SDS011;30784;48.490;9.688;2024-02-23T08:32:47;5.97;;;1.40;;
45043;SDS011;30784;48.490;9.688;2024-02-23T08:35:13;3.42;;;1.15;;
45043;SDS011;30784;48.490;9.688;2024-02-23T08:37:40;4.28;;;0.90;;
45043;SDS011;30784;48.490;9.688;2024-02-23T08:40:07;3.85;;;1.10;;
45043;SDS011;30784;48.490;9.688;2024-02-23T08:42:35;3.55;;;1.00;;
45043;SDS011;30784;48.490;9.688;2024-02-23T08:45:00;2.60;;;0.93;;
45043;SDS011;30784;48.490;9.688;2024-02-23T08:47:27;3.92;;;1.20;;
45043;SDS011;30784;48.490;9.688;2024-02-23T08:49:57;3.72;;;0.88;;
45043;SDS011;30784;48.490;9.688;2024-02-23T08:52:23;3.83;;;1.00;;
45043;SDS011;30784;48.490;9.688;2024-02-23T08:54:48;3.75;;;0.93;;
45043;SDS011;30784;48.490;9.688;2024-02-23T08:57:14;3.92;;;1.05;;
45043;SDS011;30784;48.490;9.688;2024-02-23T08:59:44;3.65;;;1.00;;
45043;SDS011;30784;48.490;9.688;2024-02-23T09:02:12;4.20;;;1.02;;
45043;SDS011;30784;48.490;9.688;2024-02-23T09:04:38;4.05;;;1.08;;
45043;SDS011;30784;48.490;9.688;2024-02-23T09:07:03;4.50;;;0.90;;
45043;SDS011;30784;48.490;9.688;2024-02-23T09:09:29;3.70;;;0.93;;
45043;SDS011;30784;48.490;9.688;2024-02-23T09:11:55;5.30;;;1.08;;
45043;SDS011;30784;48.490;9.688;2024-02-23T09:14:20;4.65;;;0.90;;
45043;SDS011;30784;48.490;9.688;2024-02-23T09:16:46;4.35;;;0.88;;
45043;SDS011;30784;48.490;9.688;2024-02-23T09:19:15;4.32;;;0.90;;
45043;SDS011;30784;48.490;9.688;2024-02-23T09:21:41;3.05;;;0.70;;
45043;SDS011;30784;48.490;9.688;2024-02-23T09:24:06;3.50;;;0.80;;
45043;SDS011;30784;48.490;9.688;2024-02-23T09:26:32;3.63;;;0.98;;
45043;SDS011;30784;48.490;9.688;2024-02-23T09:28:58;3.63;;;0.70;;
45043;SDS011;30784;48.490;9.688;2024-02-23T09:31:23;5.20;;;0.90;;
45043;SDS011;30784;48.490;9.688;2024-02-23T09:33:49;4.30;;;1.10;;
45043;SDS011;30784;48.490;9.688;2024-02-23T09:36:16;4.93;;;1.15;;
45043;SDS011;30784;48.490;9.688;2024-02-23T09:38:42;4.50;;;1.00;;
45043;SDS011;30784;48.490;9.688;2024-02-23T09:41:11;7.43;;;1.00;;
45043;SDS011;30784;48.490;9.688;2024-02-23T09:43:42;4.95;;;1.10;;
45043;SDS011;30784;48.490;9.688;2024-02-23T09:46:11;5.03;;;1.00;;
45043;SDS011;30784;48.490;9.688;2024-02-23T09:48:37;6.05;;;1.10;;
45043;SDS011;30784;48.490;9.688;2024-02-23T09:51:03;6.13;;;1.20;;
45043;SDS011;30784;48.490;9.688;2024-02-23T09:53:31;6.25;;;1.20;;
45043;SDS011;30784;48.490;9.688;2024-02-23T09:55:59;6.35;;;1.40;;
45043;SDS011;30784;48.490;9.688;2024-02-23T09:58:25;7.55;;;1.98;;
45043;SDS011;30784;48.490;9.688;2024-02-23T10:00:54;8.17;;;1.53;;
45043;SDS011;30784;48.490;9.688;2024-02-23T10:03:23;4.82;;;1.00;;
45043;SDS011;30784;48.490;9.688;2024-02-23T10:05:51;3.92;;;0.90;;
45043;SDS011;30784;48.490;9.688;2024-02-23T10:08:16;3.80;;;0.80;;
45043;SDS011;30784;48.490;9.688;2024-02-23T10:10:42;4.70;;;1.00;;
45043;SDS011;30784;48.490;9.688;2024-02-23T10:13:11;4.60;;;0.80;;
45043;SDS011;30784;48.490;9.688;2024-02-23T10:15:37;4.25;;;1.15;;
45043;SDS011;30784;48.490;9.688;2024-02-23T10:18:02;7.43;;;1.50;;
45043;SDS011;30784;48.490;9.688;2024-02-23T10:20:29;7.68;;;1.90;;
45043;SDS011;30784;48.490;9.688;2024-02-23T10:22:54;6.00;;;1.85;;
45043;SDS011;30784;48.490;9.688;2024-02-23T10:25:21;8.73;;;1.73;;
45043;SDS011;30784;48.490;9.688;2024-02-23T10:27:47;5.70;;;1.25;;
45043;SDS011;30784;48.490;9.688;2024-02-23T10:30:12;5.15;;;0.80;;
45043;SDS011;30784;48.490;9.688;2024-02-23T10:32:40;4.63;;;1.10;;
45043;SDS011;30784;48.490;9.688;2024-02-23T10:35:16;5.30;;;0.90;;
45043;SDS011;30784;48.490;9.688;2024-02-23T10:37:42;6.00;;;0.90;;
45043;SDS011;30784;48.490;9.688;2024-02-23T10:40:09;6.60;;;1.05;;
45043;SDS011;30784;48.490;9.688;2024-02-23T10:42:37;3.67;;;0.90;;
45043;SDS011;30784;48.490;9.688;2024-02-23T10:45:05;6.30;;;1.20;;
45043;SDS011;30784;48.490;9.688;2024-02-23T10:47:31;4.88;;;0.98;;
45043;SDS011;30784;48.490;9.688;2024-02-23T10:50:01;5.78;;;1.10;;
45043;SDS011;30784;48.490;9.688;2024-02-23T10:52:27;7.13;;;0.87;;
45043;SDS011;30784;48.490;9.688;2024-02-23T10:54:53;3.92;;;0.93;;
45043;SDS011;30784;48.490;9.688;2024-02-23T10:57:20;6.28;;;1.10;;
45043;SDS011;30784;48.490;9.688;2024-02-23T10:59:46;4.78;;;1.00;;
45043;SDS011;30784;48.490;9.688;2024-02-23T11:02:13;9.32;;;4.03;;
45043;SDS011;30784;48.490;9.688;2024-02-23T11:04:46;8.00;;;2.38;;
45043;SDS011;30784;48.490;9.688;2024-02-23T11:07:18;7.53;;;1.77;;
45043;SDS011;30784;48.490;9.688;2024-02-23T11:09:48;7.45;;;1.92;;
45043;SDS011;30784;48.490;9.688;2024-02-23T11:12:23;6.07;;;1.30;;
45043;SDS011;30784;48.490;9.688;2024-02-23T11:14:50;7.45;;;1.83;;
45043;SDS011;30784;48.490;9.688;2024-02-23T11:17:19;10.15;;;2.30;;
45043;SDS011;30784;48.490;9.688;2024-02-23T11:19:46;8.00;;;2.03;;
45043;SDS011;30784;48.490;9.688;2024-02-23T11:22:15;7.05;;;1.70;;
45043;SDS011;30784;48.490;9.688;2024-02-23T11:24:52;6.80;;;1.75;;
45043;SDS011;30784;48.490;9.688;2024-02-23T11:27:18;6.80;;;1.40;;
45043;SDS011;30784;48.490;9.688;2024-02-23T11:29:45;6.90;;;1.58;;
45043;SDS011;30784;48.490;9.688;2024-02-23T11:32:15;6.55;;;1.42;;
45043;SDS011;30784;48.490;9.688;2024-02-23T11:34:41;4.50;;;0.80;;
45043;SDS011;30784;48.490;9.688;2024-02-23T11:37:11;5.95;;;0.95;;
45043;SDS011;30784;48.490;9.688;2024-02-23T11:39:37;7.97;;;1.60;;
45043;SDS011;30784;48.490;9.688;2024-02-23T11:42:04;4.90;;;0.90;;
45043;SDS011;30784;48.490;9.688;2024-02-23T11:44:31;4.85;;;1.10;;
45043;SDS011;30784;48.490;9.688;2024-02-23T11:46:57;4.22;;;1.30;;
45043;SDS011;30784;48.490;9.688;2024-02-23T11:49:29;7.35;;;1.70;;
45043;SDS011;30784;48.490;9.688;2024-02-23T11:51:55;7.20;;;1.60;;
45043;SDS011;30784;48.490;9.688;2024-02-23T11:54:21;6.00;;;1.42;;
45043;SDS011;30784;48.490;9.688;2024-02-23T11:56:48;8.35;;;1.95;;
45043;SDS011;30784;48.490;9.688;2024-02-23T11:59:14;7.65;;;1.55;;
45043;SDS011;30784;48.490;9.688;2024-02-23T12:01:40;6.53;;;1.70;;
45043;SDS011;30784;48.490;9.688;2024-02-23T12:04:08;11.05;;;3.13;;
45043;SDS011;30784;48.490;9.688;2024-02-23T12:06:33;7.32;;;2.03;;
45043;SDS011;30784;48.490;9.688;2024-02-23T12:09:00;5.60;;;1.38;;
45043;SDS011;30784;48.490;9.688;2024-02-23T12:11:26;6.57;;;0.90;;
45043;SDS011;30784;48.490;9.688;2024-02-23T12:13:52;8.65;;;1.00;;
45043;SDS011;30784;48.490;9.688;2024-02-23T12:16:18;4.88;;;1.15;;
45043;SDS011;30784;48.490;9.688;2024-02-23T12:18:46;5.35;;;0.90;;
45043;SDS011;30784;48.490;9.688;2024-02-23T12:21:18;6.60;;;1.08;;
45043;SDS011;30784;48.490;9.688;2024-02-23T12:23:44;10.57;;;1.88;;
45043;SDS011;30784;48.490;9.688;2024-02-23T12:26:13;8.10;;;1.13;;
45043;SDS011;30784;48.490;9.688;2024-02-23T12:28:40;6.50;;;1.10;;
45043;SDS011;30784;48.490;9.688;2024-02-23T12:31:06;8.48;;;1.90;;
45043;SDS011;30784;48.490;9.688;2024-02-23T12:33:32;8.15;;;1.90;;
45043;SDS011;30784;48.490;9.688;2024-02-23T12:35:59;11.48;;;2.72;;
45043;SDS011;30784;48.490;9.688;2024-02-23T12:38:26;7.53;;;1.48;;
45043;SDS011;30784;48.490;9.688;2024-02-23T12:40:52;10.23;;;1.95;;
45043;SDS011;30784;48.490;9.688;2024-02-23T12:43:18;9.50;;;2.97;;
45043;SDS011;30784;48.490;9.688;2024-02-23T12:45:46;8.88;;;2.20;;
45043;SDS011;30784;48.490;9.688;2024-02-23T12:48:14;7.40;;;1.77;;
45043;SDS011;30784;48.490;9.688;2024-02-23T12:50:41;7.13;;;1.60;;
45043;SDS011;30784;48.490;9.688;2024-02-23T12:53:08;8.73;;;1.35;;
45043;SDS011;30784;48.490;9.688;2024-02-23T12:55:34;8.93;;;2.75;;
45043;SDS011;30784;48.490;9.688;2024-02-23T12:58:01;24.77;;;10.73;;
45043;SDS011;30784;48.490;9.688;2024-02-23T13:00:27;22.05;;;9.32;;
45043;SDS011;30784;48.490;9.688;2024-02-23T13:02:53;10.43;;;3.25;;
45043;SDS011;30784;48.490;9.688;2024-02-23T13:05:19;17.73;;;6.03;;
45043;SDS011;30784;48.490;9.688;2024-02-23T13:07:45;10.75;;;3.40;;
45043;SDS011;30784;48.490;9.688;2024-02-23T13:10:11;6.78;;;1.98;;
45043;SDS011;30784;48.490;9.688;2024-02-23T13:12:37;7.13;;;1.65;;
45043;SDS011;30784;48.490;9.688;2024-02-23T13:15:03;8.85;;;2.25;;
45043;SDS011;30784;48.490;9.688;2024-02-23T13:17:28;7.45;;;1.33;;
45043;SDS011;30784;48.490;9.688;2024-02-23T13:19:54;7.45;;;1.70;;
45043;SDS011;30784;48.490;9.688;2024-02-23T13:22:19;12.95;;;5.53;;
45043;SDS011;30784;48.490;9.688;2024-02-23T13:24:45;42.63;;;16.20;;
45043;SDS011;30784;48.490;9.688;2024-02-23T13:27:11;18.35;;;6.05;;
45043;SDS011;30784;48.490;9.688;2024-02-23T13:29:36;10.20;;;2.80;;
45043;SDS011;30784;48.490;9.688;2024-02-23T13:32:02;7.05;;;1.73;;
45043;SDS011;30784;48.490;9.688;2024-02-23T13:34:27;8.50;;;1.60;;
45043;SDS011;30784;48.490;9.688;2024-02-23T13:36:53;5.75;;;1.17;;
45043;SDS011;30784;48.490;9.688;2024-02-23T13:39:18;6.60;;;1.17;;
45043;SDS011;30784;48.490;9.688;2024-02-23T13:41:44;5.88;;;0.93;;
45043;SDS011;30784;48.490;9.688;2024-02-23T13:44:09;5.50;;;0.93;;
45043;SDS011;30784;48.490;9.688;2024-02-23T13:46:35;6.88;;;1.30;;
45043;SDS011;30784;48.490;9.688;2024-02-23T13:49:04;5.85;;;0.95;;
45043;SDS011;30784;48.490;9.688;2024-02-23T13:53:59;9.45;;;1.98;;
45043;SDS011;30784;48.490;9.688;2024-02-23T13:56:25;6.45;;;1.30;;
45043;SDS011;30784;48.490;9.688;2024-02-23T13:58:51;5.55;;;1.00;;
45043;SDS011;30784;48.490;9.688;2024-02-23T14:01:16;5.88;;;1.02;;
45043;SDS011;30784;48.490;9.688;2024-02-23T14:03:42;5.72;;;1.00;;
45043;SDS011;30784;48.490;9.688;2024-02-23T14:06:08;8.75;;;1.25;;
45043;SDS011;30784;48.490;9.688;2024-02-23T14:08:34;5.00;;;0.75;;
45043;SDS011;30784;48.490;9.688;2024-02-23T14:11:01;3.67;;;0.68;;
45043;SDS011;30784;48.490;9.688;2024-02-23T14:13:27;3.13;;;0.70;;
45043;SDS011;30784;48.490;9.688;2024-02-23T14:15:52;6.25;;;0.95;;
45043;SDS011;30784;48.490;9.688;2024-02-23T14:18:18;6.82;;;0.77;;
45043;SDS011;30784;48.490;9.688;2024-02-23T14:20:44;5.03;;;0.80;;
45043;SDS011;30784;48.490;9.688;2024-02-23T14:23:10;5.90;;;0.80;;
45043;SDS011;30784;48.490;9.688;2024-02-23T14:25:35;4.20;;;0.75;;
45043;SDS011;30784;48.490;9.688;2024-02-23T14:28:01;4.20;;;0.70;;
45043;SDS011;30784;48.490;9.688;2024-02-23T14:30:27;5.75;;;0.77;;
45043;SDS011;30784;48.490;9.688;2024-02-23T14:32:52;4.90;;;1.08;;
45043;SDS011;30784;48.490;9.688;2024-02-23T14:35:18;6.68;;;1.30;;
45043;SDS011;30784;48.490;9.688;2024-02-23T14:37:43;7.97;;;1.80;;
45043;SDS011;30784;48.490;9.688;2024-02-23T14:40:09;6.50;;;1.00;;
45043;SDS011;30784;48.490;9.688;2024-02-23T14:42:36;3.65;;;0.88;;
45043;SDS011;30784;48.490;9.688;2024-02-23T14:45:01;4.25;;;0.80;;